KFFL

Fairfield Municipal Airport

Fairfield, Iowa, USA
METAR KFFL 221415Z AUTO 29008KT 10SM CLR 09/05 A3009 RMK AO2 PWINO
Observed Flight Rules
Oct-22 @ 14:15 UTC (10 minutes ago) Visual Flight Rules
Wind Visibility Clouds
290° at 8 knots 10 miles
  • Clear skies
Temperatures Readings
Current 9°C / 48°F
Dewpoint 5°C / 41°F
Humidity 76%
Altimeter 30.09" Hg
Pressure 1019 hPa
Elevation 244
METAR KFFL 221415Z AUTO 29008KT 10SM CLR 09/05 A3009 RMK AO2 PWINO
Observed Flight Rules
Oct-22 @ 14:15 UTC
(10 minutes ago)
VFR
Wind Visibility
290° at 8 knots 10 miles
Clouds
  • Clear skies
Temperature Dewpoint
9°C / 48°F 5°C / 41°F
Humidity Altimeter Pressure
76% 30.09" Hg 1019 hPa